Main page
METAR-TAF:

METAR-TAF

Airports :

Beijing, China

Beijing Capital International Airport

latitude: 39-56N, longitude: 116-17E, elevation: 55 m

Current weather observation

The report was made 23 minutes ago, at 13:30 UTC
Wind 4 kt from the South, varying between South/Southeast and West
Temperature 11°C
Humidity 54%
Pressure 1020 hPa
Visibility 10 km or more
no clouds below 1500 m and no cumulonimbus

METAR: ZBAA 281330Z 19002MPS 160V280 CAVOK 11/02 Q1020 NOSIG

Time: 21:53 (13:53 UTC)

Forecast

The report was made 4 hours and 33 minutes ago, at 09:20 UTC
Forecast valid from 28 at 12 UTC to 29 at 12 UTC
Wind 8 kt from the South/Southwest
Visibility 10 km or more
no clouds below 1500 m and no cumulonimbus

TAF: ZBAA 280920Z 2812/2912 20004MPS CAVOK TX18/2907Z TN06/2822Z

Weather observations and forecasts of more than 4000 airports (METAR and TAF reports).

The available stations are represented by yellow and red dots on the map.

Hover mouse over dot to see the name of the station.

Then click to see weather observations and forecasts.

To change the map : click on the green buttons with a black cross to zoom in, on the green button with a dash to zoom out, or on the green arrows for adjacent maps.


METAR-TAF: